ADDS METAR Data INFO
IDs: Format: Raw Decoded Include TAF

Data at: 0936 UTC 11 Dec 2017

KRPH 110910Z AUTO 00000KT 10SM 00/M08 A3028 RMK AO2 T00001076
KRPH 110850Z AUTO 00000KT 10SM 00/M08 A3028 RMK AO2 T00001078
KRPH 110835Z AUTO 00000KT 10SM 01/M08 A3028 RMK AO2 T00071081
KRPH 110815Z AUTO 00000KT 10SM 01/M08 A3029 RMK AO2 T00101080
KRPH 110755Z AUTO 00000KT 10SM 02/M08 A3029 RMK AO2 T00201081
KRPH 110735Z AUTO 00000KT 10SM 03/M08 A3029 RMK AO2 T00281084
KRPH 110715Z AUTO 00000KT 10SM 03/M08 A3029 RMK AO2 T00271085
KRPH 110655Z AUTO 00000KT 10SM 00/M08 A3029 RMK AO2 T00031078
KRPH 110635Z AUTO 00000KT 10SM 01/M08 A3029 RMK AO2 T00071079
KRPH 110615Z AUTO 00000KT 10SM 02/M08 A3029 RMK AO2 T00161083
KRPH 110555Z AUTO 00000KT 10SM 01/M08 A3029 RMK AO2 T00121081 10169 20011 402351051
KRPH 110535Z AUTO 00000KT 10SM 01/M08 A3030 RMK AO2 T00141080
KRPH 110515Z AUTO 00000KT 10SM 03/M08 A3030 RMK AO2 T00251084
KRPH 110455Z AUTO 00000KT 10SM 02/M08 A3030 RMK AO2 T00211080
KRPH 110435Z AUTO 00000KT 10SM 02/M08 A3030 RMK AO2 T00191076
KRPH 110415Z AUTO 00000KT 10SM 03/M08 A3030 RMK AO2 T00281081
KRPH 110355Z AUTO 00000KT 10SM 03/M07 A3030 RMK AO2 T00251070
KRPH 110335Z AUTO 00000KT 10SM 04/M09 A3031 RMK AO2 T00401088
KRPH 110315Z AUTO 00000KT 10SM 04/M09 A3031 RMK AO2 T00421086
KRPH 110255Z AUTO 00000KT 10SM 05/M09 A3031 RMK AO2 T00451090
KRPH 110235Z AUTO 00000KT 10SM 06/M09 A3031 RMK AO2 T00571090
KRPH 110215Z AUTO 00000KT 10SM 06/M09 A3031 RMK AO2 T00641088
KRPH 110155Z AUTO 00000KT 10SM 07/M08 A3031 RMK AO2 T00661084
KRPH 110135Z AUTO 00000KT 10SM 09/M09 A3031 RMK AO2 T00861088
KRPH 110115Z AUTO 00000KT 10SM 08/M08 A3031 RMK AO2 T00821085
KRPH 110055Z AUTO 00000KT 10SM 11/M09 A3030 RMK AO2 T01141091
KRPH 110035Z AUTO 00000KT 10SM 11/M09 A3030 RMK AO2 T01131092
KRPH 110015Z AUTO 00000KT 10SM 15/M09 A3030 RMK AO2 T01451092
KRPH 102355Z AUTO 00000KT 10SM 17/M09 A3029 RMK AO2 T01681086 10235 20168
KRPH 102335Z AUTO 00000KT 10SM 19/M08 A3029 RMK AO2 T01891078
KRPH 102315Z AUTO 00000KT 10SM 20/M08 A3029 RMK AO2 T01981077
KRPH 102255Z AUTO 00000KT 10SM 21/M08 A3029 RMK AO2 T02111076
KRPH 102235Z AUTO 28006KT 10SM 22/M07 A3030 RMK AO2 T02221074
KRPH 102215Z AUTO 29006KT 10SM 23/M07 A3029 RMK AO2 T02281073
KRPH 102155Z AUTO 28007KT 10SM 23/M07 A3029 RMK AO2 T02321068
KRPH 102135Z AUTO 27006KT 10SM 23/M07 A3030 RMK AO2 T02251067
KRPH 102115Z AUTO 27009KT 10SM 23/M07 A3030 RMK AO2 T02331068
KRPH 102055Z AUTO 28009G16KT 10SM 23/M07 A3030 RMK AO2 T02311071
KRPH 102035Z AUTO 27006KT 10SM 24/M07 A3030 RMK AO2 T02351069
KRPH 102015Z AUTO 27007KT 10SM 23/M07 A3030 RMK AO2 T02311067
KRPH 101955Z AUTO 30008KT 10SM 23/M07 A3031 RMK AO2 T02301066
KRPH 101935Z AUTO 27009KT 10SM 23/M07 A3032 RMK AO2 T02261067
KRPH 101915Z AUTO 27005KT 10SM 22/M06 A3033 RMK AO2 T02191059
KRPH 101855Z AUTO 26006KT 10SM 22/M05 A3034 RMK AO2 T02151050
KRPH 101835Z AUTO 21004KT 10SM 20/M05 A3035 RMK AO2 T02021052
KRPH 101815Z AUTO 00000KT 10SM 19/M05 A3036 RMK AO2 T01901046
KRPH 101755Z AUTO 26003KT 10SM 17/M04 A3038 RMK AO2 T01681043 10168 21043
KRPH 101735Z AUTO 00000KT 10SM 15/M04 A3038 RMK AO2 T01521040
KRPH 101715Z AUTO 00000KT 10SM 14/M04 A3039 RMK AO2 T01351037
KRPH 101655Z AUTO 00000KT 10SM 11/M04 A3040 RMK AO2 T01141039
KRPH 101635Z AUTO 00000KT 10SM 10/M04 A3040 RMK AO2 T00971038
KRPH 101615Z AUTO 00000KT 10SM 08/M04 A3041 RMK AO2 T00821039
KRPH 101555Z AUTO 00000KT 10SM 07/M04 A3041 RMK AO2 T00711041
KRPH 101535Z AUTO 00000KT 10SM 05/M04 A3040 RMK AO2 T00511036
KRPH 101515Z AUTO 00000KT 10SM 04/M03 A3041 RMK AO2 T00371033
KRPH 101455Z AUTO 00000KT 10SM 02/M03 A3040 RMK AO2 T00211032
KRPH 101435Z AUTO 00000KT 10SM 00/M03 A3040 RMK AO2 T10011032
KRPH 101415Z AUTO 00000KT 10SM M01/M05 A3039 RMK AO2 T10141049
KRPH 101355Z AUTO 00000KT 10SM M03/M06 A3039 RMK AO2 T10341060
KRPH 101335Z AUTO 00000KT 10SM M03/M05 A3040 RMK AO2 T10261055
KRPH 101315Z AUTO 00000KT 10SM M04/M07 A3040 RMK AO2 T10391067
KRPH 101255Z AUTO 00000KT 10SM M03/M05 A3039 RMK AO2 T10301055
KRPH 101235Z AUTO 00000KT 10SM M03/M06 A3038 RMK AO2 T10301058
KRPH 101215Z AUTO 00000KT 10SM M03/M06 A3038 RMK AO2 T10271058
KRPH 101155Z AUTO 00000KT 10SM M03/M06 A3037 RMK AO2 T10291059 11017 21051
KRPH 101135Z AUTO 00000KT 10SM M03/M06 A3036 RMK AO2 T10331062
KRPH 101115Z AUTO 00000KT 10SM M05/M07 A3035 RMK AO2 T10491069
KRPH 101055Z AUTO 00000KT 10SM M05/M07 A3035 RMK AO2 T10471071
KRPH 101035Z AUTO 00000KT 10SM M05/M07 A3035 RMK AO2 T10501073
KRPH 101015Z AUTO 00000KT 10SM M05/M07 A3035 RMK AO2 T10471072
KRPH 100955Z AUTO 00000KT 10SM M05/M07 A3036 RMK AO2 T10471073
KRPH 100935Z AUTO 00000KT 10SM M04/M07 A3037 RMK AO2 T10411071
KRPH 100915Z AUTO 00000KT 10SM M04/M07 A3036 RMK AO2 T10381071
KRPH 100855Z AUTO 00000KT 10SM M04/M07 A3037 RMK AO2 T10381069
KRPH 100835Z AUTO 00000KT 10SM M03/M07 A3037 RMK AO2 T10331071
KRPH 100815Z AUTO 00000KT 10SM M04/M07 A3037 RMK AO2 T10361070
KRPH 100755Z AUTO 00000KT 10SM M03/M07 A3036 RMK AO2 T10311072
KRPH 100735Z AUTO 00000KT 10SM M03/M07 A3036 RMK AO2 T10291069
KRPH 100715Z AUTO 00000KT 10SM M03/M07 A3036 RMK AO2 T10301070
KRPH 100655Z AUTO 00000KT 10SM M03/M07 A3036 RMK AO2 T10311071
KRPH 100635Z AUTO 00000KT 10SM M02/M07 A3036 RMK AO2 T10241070
KRPH 100615Z AUTO 00000KT 10SM M02/M07 A3036 RMK AO2 T10251070
KRPH 100555Z AUTO 00000KT 10SM M02/M07 A3036 RMK AO2 T10201069 10106 21020 401551035
KRPH 100535Z AUTO 00000KT 10SM M02/M07 A3036 RMK AO2 T10181068
KRPH 100515Z AUTO 00000KT 10SM M01/M07 A3036 RMK AO2 T10141068
KRPH 100455Z AUTO 00000KT 10SM M01/M07 A3036 RMK AO2 T10091067
KRPH 100435Z AUTO 00000KT 10SM M01/M07 A3035 RMK AO2 T10061067
KRPH 100415Z AUTO 00000KT 10SM 00/M06 A3035 RMK AO2 T10031065
KRPH 100355Z AUTO 00000KT 10SM 00/M07 A3034 RMK AO2 T00001066
KRPH 100335Z AUTO 00000KT 10SM 01/M06 A3033 RMK AO2 T00061063
KRPH 100315Z AUTO 00000KT 10SM 01/M06 A3033 RMK AO2 T00091060
KRPH 100255Z AUTO 00000KT 10SM 02/M06 A3033 RMK AO2 T00171060
KRPH 100235Z AUTO 00000KT 10SM 03/M06 A3032 RMK AO2 T00281061
KRPH 100215Z AUTO 00000KT 10SM 03/M06 A3032 RMK AO2 T00271060
KRPH 100155Z AUTO 00000KT 10SM 04/M06 A3032 RMK AO2 T00401057
KRPH 100135Z AUTO 00000KT 10SM 04/M06 A3031 RMK AO2 T00431060
KRPH 100115Z AUTO 00000KT 10SM 07/M06 A3031 RMK AO2 T00671059
KRPH 100055Z AUTO 00000KT 10SM 09/M05 A3030 RMK AO2 T00851055
KRPH 100035Z AUTO 00000KT 10SM 09/M05 A3030 RMK AO2 T00931054
KRPH 100015Z AUTO 00000KT 10SM 10/M05 A3029 RMK AO2 T01021053
KRPH 092355Z AUTO 00000KT 10SM 11/M05 A3029 RMK AO2 T01051053 10155 20105
KRPH 092335Z AUTO 00000KT 10SM 12/M05 A3029 RMK AO2 T01151053
KRPH 092315Z AUTO 00000KT 10SM 13/M05 A3029 RMK AO2 T01281050
KRPH 092250Z AUTO 32007KT 10SM 14/M05 A3028 RMK AO2 T01401050
KRPH 092235Z AUTO 34010KT 10SM 15/M05 A3028 RMK AO2 T01451049
KRPH 092215Z AUTO 33009G14KT 10SM 15/M05 A3028 RMK AO2 T01481052
KRPH 092155Z AUTO 33010G15KT 10SM 15/M05 A3027 RMK AO2 T01511052